sensor_id;sensor_type;location;lat;lon;timestamp;P1;durP1;ratioP1;P2;durP2;ratioP2
56255;SDS011;57229;51.432;-2.598;2022-10-31T00:00:44;8.60;;;3.10;;
56255;SDS011;57229;51.432;-2.598;2022-10-31T00:03:11;8.10;;;3.13;;
56255;SDS011;57229;51.432;-2.598;2022-10-31T00:05:47;11.52;;;3.20;;
56255;SDS011;57229;51.432;-2.598;2022-10-31T00:08:14;10.48;;;3.50;;
56255;SDS011;57229;51.432;-2.598;2022-10-31T00:10:41;7.60;;;3.25;;
56255;SDS011;57229;51.432;-2.598;2022-10-31T00:13:09;9.93;;;3.20;;
56255;SDS011;57229;51.432;-2.598;2022-10-31T00:15:38;9.10;;;3.30;;
56255;SDS011;57229;51.432;-2.598;2022-10-31T00:18:06;9.82;;;3.45;;
56255;SDS011;57229;51.432;-2.598;2022-10-31T00:20:32;11.00;;;3.05;;
56255;SDS011;57229;51.432;-2.598;2022-10-31T00:29:54;10.00;;;3.22;;
56255;SDS011;57229;51.432;-2.598;2022-10-31T00:36:01;13.93;;;3.20;;
56255;SDS011;57229;51.432;-2.598;2022-10-31T00:38:27;8.55;;;2.90;;
56255;SDS011;57229;51.432;-2.598;2022-10-31T00:40:53;12.20;;;3.75;;
56255;SDS011;57229;51.432;-2.598;2022-10-31T00:43:18;11.40;;;3.20;;
56255;SDS011;57229;51.432;-2.598;2022-10-31T00:45:44;13.48;;;3.28;;
56255;SDS011;57229;51.432;-2.598;2022-10-31T00:48:10;11.77;;;3.47;;
56255;SDS011;57229;51.432;-2.598;2022-10-31T01:02:34;8.98;;;2.63;;
56255;SDS011;57229;51.432;-2.598;2022-10-31T01:05:06;11.02;;;3.40;;
56255;SDS011;57229;51.432;-2.598;2022-10-31T01:07:35;8.68;;;2.90;;
56255;SDS011;57229;51.432;-2.598;2022-10-31T01:10:13;7.32;;;3.03;;
56255;SDS011;57229;51.432;-2.598;2022-10-31T01:13:11;9.57;;;3.28;;
56255;SDS011;57229;51.432;-2.598;2022-10-31T01:15:52;8.43;;;3.33;;
56255;SDS011;57229;51.432;-2.598;2022-10-31T01:18:20;8.85;;;3.00;;
56255;SDS011;57229;51.432;-2.598;2022-10-31T01:21:13;9.70;;;2.97;;
56255;SDS011;57229;51.432;-2.598;2022-10-31T01:31:01;7.57;;;2.67;;
56255;SDS011;57229;51.432;-2.598;2022-10-31T01:33:29;7.55;;;3.22;;
56255;SDS011;57229;51.432;-2.598;2022-10-31T01:36:19;9.02;;;3.30;;
56255;SDS011;57229;51.432;-2.598;2022-10-31T01:38:51;8.88;;;3.00;;
56255;SDS011;57229;51.432;-2.598;2022-10-31T01:41:20;10.65;;;3.00;;
56255;SDS011;57229;51.432;-2.598;2022-10-31T01:46:15;9.98;;;3.20;;
56255;SDS011;57229;51.432;-2.598;2022-10-31T01:48:45;12.02;;;2.92;;
56255;SDS011;57229;51.432;-2.598;2022-10-31T01:51:12;10.23;;;3.42;;
56255;SDS011;57229;51.432;-2.598;2022-10-31T01:53:42;9.07;;;3.30;;
56255;SDS011;57229;51.432;-2.598;2022-10-31T01:56:09;10.73;;;3.00;;
56255;SDS011;57229;51.432;-2.598;2022-10-31T01:58:36;11.90;;;3.20;;
56255;SDS011;57229;51.432;-2.598;2022-10-31T02:01:02;9.00;;;3.17;;
56255;SDS011;57229;51.432;-2.598;2022-10-31T02:03:28;9.95;;;2.92;;
56255;SDS011;57229;51.432;-2.598;2022-10-31T02:05:55;7.43;;;2.90;;
56255;SDS011;57229;51.432;-2.598;2022-10-31T02:08:28;11.10;;;3.47;;
56255;SDS011;57229;51.432;-2.598;2022-10-31T02:10:58;8.18;;;3.15;;
56255;SDS011;57229;51.432;-2.598;2022-10-31T02:13:25;8.60;;;2.70;;
56255;SDS011;57229;51.432;-2.598;2022-10-31T02:15:54;8.35;;;3.30;;
56255;SDS011;57229;51.432;-2.598;2022-10-31T02:18:22;8.15;;;2.70;;
56255;SDS011;57229;51.432;-2.598;2022-10-31T02:29:05;7.72;;;2.60;;
56255;SDS011;57229;51.432;-2.598;2022-10-31T02:31:39;12.07;;;3.20;;
56255;SDS011;57229;51.432;-2.598;2022-10-31T02:34:36;6.95;;;2.90;;
56255;SDS011;57229;51.432;-2.598;2022-10-31T02:37:12;8.48;;;2.70;;
56255;SDS011;57229;51.432;-2.598;2022-10-31T02:39:46;9.45;;;3.00;;
56255;SDS011;57229;51.432;-2.598;2022-10-31T02:43:02;6.68;;;3.17;;
56255;SDS011;57229;51.432;-2.598;2022-10-31T02:45:35;6.35;;;2.97;;
56255;SDS011;57229;51.432;-2.598;2022-10-31T02:48:18;8.10;;;2.78;;
56255;SDS011;57229;51.432;-2.598;2022-10-31T02:50:48;7.88;;;2.80;;
56255;SDS011;57229;51.432;-2.598;2022-10-31T02:53:18;10.77;;;2.90;;
56255;SDS011;57229;51.432;-2.598;2022-10-31T02:58:49;7.13;;;2.63;;
56255;SDS011;57229;51.432;-2.598;2022-10-31T03:07:47;6.75;;;2.50;;
56255;SDS011;57229;51.432;-2.598;2022-10-31T03:10:41;6.97;;;2.88;;
56255;SDS011;57229;51.432;-2.598;2022-10-31T03:15:47;8.75;;;2.83;;
56255;SDS011;57229;51.432;-2.598;2022-10-31T03:18:16;7.22;;;2.90;;
56255;SDS011;57229;51.432;-2.598;2022-10-31T03:21:36;6.68;;;2.83;;
56255;SDS011;57229;51.432;-2.598;2022-10-31T03:24:13;9.27;;;3.38;;
56255;SDS011;57229;51.432;-2.598;2022-10-31T03:26:50;7.70;;;3.03;;
56255;SDS011;57229;51.432;-2.598;2022-10-31T03:29:50;12.30;;;3.20;;
56255;SDS011;57229;51.432;-2.598;2022-10-31T03:32:42;8.68;;;2.88;;
56255;SDS011;57229;51.432;-2.598;2022-10-31T03:35:09;9.13;;;3.28;;
56255;SDS011;57229;51.432;-2.598;2022-10-31T03:37:39;8.85;;;2.75;;
56255;SDS011;57229;51.432;-2.598;2022-10-31T03:40:07;7.90;;;3.13;;
56255;SDS011;57229;51.432;-2.598;2022-10-31T03:42:40;5.25;;;2.95;;
56255;SDS011;57229;51.432;-2.598;2022-10-31T03:45:15;10.00;;;3.25;;
56255;SDS011;57229;51.432;-2.598;2022-10-31T03:47:48;10.32;;;3.20;;
56255;SDS011;57229;51.432;-2.598;2022-10-31T03:50:14;7.57;;;2.80;;
56255;SDS011;57229;51.432;-2.598;2022-10-31T03:55:50;7.78;;;2.85;;
56255;SDS011;57229;51.432;-2.598;2022-10-31T03:58:23;6.90;;;2.92;;
56255;SDS011;57229;51.432;-2.598;2022-10-31T04:00:52;9.45;;;2.95;;
56255;SDS011;57229;51.432;-2.598;2022-10-31T04:03:25;9.05;;;3.10;;
56255;SDS011;57229;51.432;-2.598;2022-10-31T04:05:57;9.43;;;3.05;;
56255;SDS011;57229;51.432;-2.598;2022-10-31T04:08:51;7.13;;;3.03;;
56255;SDS011;57229;51.432;-2.598;2022-10-31T04:11:21;9.37;;;2.90;;
56255;SDS011;57229;51.432;-2.598;2022-10-31T04:13:53;6.72;;;2.80;;
56255;SDS011;57229;51.432;-2.598;2022-10-31T04:16:25;10.95;;;2.72;;
56255;SDS011;57229;51.432;-2.598;2022-10-31T04:18:52;10.02;;;2.90;;
56255;SDS011;57229;51.432;-2.598;2022-10-31T04:21:19;8.48;;;2.83;;
56255;SDS011;57229;51.432;-2.598;2022-10-31T04:23:54;7.88;;;2.85;;
56255;SDS011;57229;51.432;-2.598;2022-10-31T04:26:29;10.35;;;3.15;;
56255;SDS011;57229;51.432;-2.598;2022-10-31T04:28:55;9.70;;;2.90;;
56255;SDS011;57229;51.432;-2.598;2022-10-31T04:31:21;10.32;;;3.13;;
56255;SDS011;57229;51.432;-2.598;2022-10-31T04:33:49;8.80;;;2.80;;
56255;SDS011;57229;51.432;-2.598;2022-10-31T04:36:16;6.18;;;2.75;;
56255;SDS011;57229;51.432;-2.598;2022-10-31T04:38:42;7.15;;;2.80;;
56255;SDS011;57229;51.432;-2.598;2022-10-31T04:41:08;5.93;;;2.70;;
56255;SDS011;57229;51.432;-2.598;2022-10-31T04:43:34;10.23;;;3.15;;
56255;SDS011;57229;51.432;-2.598;2022-10-31T04:45:59;7.53;;;3.03;;
56255;SDS011;57229;51.432;-2.598;2022-10-31T04:48:26;8.43;;;3.05;;
56255;SDS011;57229;51.432;-2.598;2022-10-31T04:50:52;8.23;;;2.70;;
56255;SDS011;57229;51.432;-2.598;2022-10-31T04:53:36;6.70;;;2.60;;
56255;SDS011;57229;51.432;-2.598;2022-10-31T04:56:02;13.25;;;3.20;;
56255;SDS011;57229;51.432;-2.598;2022-10-31T04:58:28;7.55;;;3.00;;
56255;SDS011;57229;51.432;-2.598;2022-10-31T05:03:59;9.07;;;3.00;;
56255;SDS011;57229;51.432;-2.598;2022-10-31T05:06:24;8.25;;;2.80;;
56255;SDS011;57229;51.432;-2.598;2022-10-31T05:08:50;6.70;;;2.97;;
56255;SDS011;57229;51.432;-2.598;2022-10-31T05:11:16;8.05;;;2.83;;
56255;SDS011;57229;51.432;-2.598;2022-10-31T05:13:41;7.00;;;2.97;;
56255;SDS011;57229;51.432;-2.598;2022-10-31T05:16:07;8.80;;;3.35;;
56255;SDS011;57229;51.432;-2.598;2022-10-31T05:18:33;8.10;;;3.17;;
56255;SDS011;57229;51.432;-2.598;2022-10-31T05:20:58;6.93;;;2.80;;
56255;SDS011;57229;51.432;-2.598;2022-10-31T05:23:24;6.65;;;2.90;;
56255;SDS011;57229;51.432;-2.598;2022-10-31T05:25:50;10.60;;;2.63;;
56255;SDS011;57229;51.432;-2.598;2022-10-31T05:28:16;8.50;;;2.90;;
56255;SDS011;57229;51.432;-2.598;2022-10-31T05:30:42;8.55;;;2.78;;
56255;SDS011;57229;51.432;-2.598;2022-10-31T05:33:07;8.77;;;2.90;;
56255;SDS011;57229;51.432;-2.598;2022-10-31T05:35:33;9.45;;;2.92;;
56255;SDS011;57229;51.432;-2.598;2022-10-31T05:37:59;7.25;;;3.00;;
56255;SDS011;57229;51.432;-2.598;2022-10-31T05:40:25;7.53;;;2.90;;
56255;SDS011;57229;51.432;-2.598;2022-10-31T05:42:53;7.88;;;3.10;;
56255;SDS011;57229;51.432;-2.598;2022-10-31T05:45:41;7.22;;;2.95;;
56255;SDS011;57229;51.432;-2.598;2022-10-31T05:51:05;5.20;;;2.53;;
56255;SDS011;57229;51.432;-2.598;2022-10-31T05:53:34;9.63;;;2.97;;
56255;SDS011;57229;51.432;-2.598;2022-10-31T05:56:00;7.15;;;3.08;;
56255;SDS011;57229;51.432;-2.598;2022-10-31T05:58:26;9.32;;;3.28;;
56255;SDS011;57229;51.432;-2.598;2022-10-31T06:00:52;6.60;;;2.90;;
56255;SDS011;57229;51.432;-2.598;2022-10-31T06:03:21;10.55;;;3.08;;
56255;SDS011;57229;51.432;-2.598;2022-10-31T06:05:50;5.28;;;2.78;;
56255;SDS011;57229;51.432;-2.598;2022-10-31T06:08:21;7.20;;;3.20;;
56255;SDS011;57229;51.432;-2.598;2022-10-31T06:10:47;6.82;;;3.00;;
56255;SDS011;57229;51.432;-2.598;2022-10-31T06:13:20;9.45;;;2.85;;
56255;SDS011;57229;51.432;-2.598;2022-10-31T06:15:47;6.97;;;2.72;;
56255;SDS011;57229;51.432;-2.598;2022-10-31T06:18:13;10.65;;;3.60;;
56255;SDS011;57229;51.432;-2.598;2022-10-31T06:20:38;10.38;;;3.22;;
56255;SDS011;57229;51.432;-2.598;2022-10-31T06:23:04;9.82;;;2.83;;
56255;SDS011;57229;51.432;-2.598;2022-10-31T06:28:56;10.20;;;2.90;;
56255;SDS011;57229;51.432;-2.598;2022-10-31T06:31:21;5.85;;;2.60;;
56255;SDS011;57229;51.432;-2.598;2022-10-31T06:36:38;6.05;;;2.85;;
56255;SDS011;57229;51.432;-2.598;2022-10-31T06:39:04;6.15;;;2.75;;
56255;SDS011;57229;51.432;-2.598;2022-10-31T06:41:30;9.25;;;3.25;;
56255;SDS011;57229;51.432;-2.598;2022-10-31T06:43:55;6.47;;;2.80;;
56255;SDS011;57229;51.432;-2.598;2022-10-31T06:46:21;6.88;;;2.60;;
56255;SDS011;57229;51.432;-2.598;2022-10-31T06:48:46;7.47;;;2.97;;
56255;SDS011;57229;51.432;-2.598;2022-10-31T06:51:12;7.10;;;2.97;;
56255;SDS011;57229;51.432;-2.598;2022-10-31T06:53:38;7.47;;;3.10;;
56255;SDS011;57229;51.432;-2.598;2022-10-31T06:56:03;6.72;;;3.00;;
56255;SDS011;57229;51.432;-2.598;2022-10-31T06:58:29;10.48;;;3.15;;
56255;SDS011;57229;51.432;-2.598;2022-10-31T07:00:58;10.10;;;3.33;;
56255;SDS011;57229;51.432;-2.598;2022-10-31T07:03:24;7.80;;;2.80;;
56255;SDS011;57229;51.432;-2.598;2022-10-31T07:05:50;5.05;;;2.90;;
56255;SDS011;57229;51.432;-2.598;2022-10-31T07:08:15;6.18;;;2.85;;
56255;SDS011;57229;51.432;-2.598;2022-10-31T07:10:42;8.13;;;2.97;;
56255;SDS011;57229;51.432;-2.598;2022-10-31T07:13:12;8.73;;;2.95;;
56255;SDS011;57229;51.432;-2.598;2022-10-31T07:15:40;7.22;;;3.10;;
56255;SDS011;57229;51.432;-2.598;2022-10-31T07:18:07;7.18;;;3.10;;
56255;SDS011;57229;51.432;-2.598;2022-10-31T07:20:34;6.43;;;3.00;;
56255;SDS011;57229;51.432;-2.598;2022-10-31T07:23:00;9.85;;;2.85;;
56255;SDS011;57229;51.432;-2.598;2022-10-31T07:25:26;7.78;;;2.70;;
56255;SDS011;57229;51.432;-2.598;2022-10-31T07:27:52;7.97;;;3.22;;
56255;SDS011;57229;51.432;-2.598;2022-10-31T07:30:18;5.43;;;2.28;;
56255;SDS011;57229;51.432;-2.598;2022-10-31T07:32:45;7.07;;;2.40;;
56255;SDS011;57229;51.432;-2.598;2022-10-31T07:35:16;6.95;;;2.78;;
56255;SDS011;57229;51.432;-2.598;2022-10-31T07:37:49;9.85;;;2.80;;
56255;SDS011;57229;51.432;-2.598;2022-10-31T07:40:15;7.47;;;3.03;;
56255;SDS011;57229;51.432;-2.598;2022-10-31T07:42:42;9.68;;;2.80;;
56255;SDS011;57229;51.432;-2.598;2022-10-31T07:45:10;6.78;;;3.05;;
56255;SDS011;57229;51.432;-2.598;2022-10-31T07:47:46;7.80;;;3.25;;
56255;SDS011;57229;51.432;-2.598;2022-10-31T07:50:14;5.82;;;3.10;;
56255;SDS011;57229;51.432;-2.598;2022-10-31T07:52:44;8.27;;;2.83;;
56255;SDS011;57229;51.432;-2.598;2022-10-31T07:55:09;6.30;;;2.30;;
56255;SDS011;57229;51.432;-2.598;2022-10-31T07:57:35;8.52;;;3.00;;
56255;SDS011;57229;51.432;-2.598;2022-10-31T08:00:05;9.13;;;2.58;;
56255;SDS011;57229;51.432;-2.598;2022-10-31T08:02:32;7.05;;;2.80;;
56255;SDS011;57229;51.432;-2.598;2022-10-31T08:04:58;5.05;;;2.80;;
56255;SDS011;57229;51.432;-2.598;2022-10-31T08:07:24;4.82;;;2.60;;
56255;SDS011;57229;51.432;-2.598;2022-10-31T08:09:51;9.45;;;3.03;;
56255;SDS011;57229;51.432;-2.598;2022-10-31T08:12:23;10.27;;;3.03;;
56255;SDS011;57229;51.432;-2.598;2022-10-31T08:14:49;6.70;;;3.03;;
56255;SDS011;57229;51.432;-2.598;2022-10-31T08:17:15;6.50;;;3.05;;
56255;SDS011;57229;51.432;-2.598;2022-10-31T08:19:40;9.85;;;3.35;;
56255;SDS011;57229;51.432;-2.598;2022-10-31T08:22:06;17.00;;;2.70;;
56255;SDS011;57229;51.432;-2.598;2022-10-31T08:24:32;6.25;;;3.17;;
56255;SDS011;57229;51.432;-2.598;2022-10-31T08:26:57;10.38;;;2.88;;
56255;SDS011;57229;51.432;-2.598;2022-10-31T08:29:23;8.95;;;3.17;;
56255;SDS011;57229;51.432;-2.598;2022-10-31T08:31:48;14.20;;;3.42;;
56255;SDS011;57229;51.432;-2.598;2022-10-31T08:34:14;15.43;;;3.92;;
56255;SDS011;57229;51.432;-2.598;2022-10-31T08:36:40;8.48;;;3.40;;
56255;SDS011;57229;51.432;-2.598;2022-10-31T08:39:07;12.45;;;2.90;;
56255;SDS011;57229;51.432;-2.598;2022-10-31T08:41:32;12.02;;;3.40;;
56255;SDS011;57229;51.432;-2.598;2022-10-31T08:43:58;15.23;;;3.78;;
56255;SDS011;57229;51.432;-2.598;2022-10-31T08:46:24;7.57;;;3.03;;
56255;SDS011;57229;51.432;-2.598;2022-10-31T08:48:50;11.80;;;3.28;;
56255;SDS011;57229;51.432;-2.598;2022-10-31T08:51:15;6.88;;;3.13;;
56255;SDS011;57229;51.432;-2.598;2022-10-31T08:53:42;9.77;;;3.13;;
56255;SDS011;57229;51.432;-2.598;2022-10-31T08:56:08;10.57;;;3.00;;
56255;SDS011;57229;51.432;-2.598;2022-10-31T08:58:42;11.10;;;2.92;;
56255;SDS011;57229;51.432;-2.598;2022-10-31T09:01:08;9.02;;;2.78;;
56255;SDS011;57229;51.432;-2.598;2022-10-31T09:03:34;6.57;;;2.63;;
56255;SDS011;57229;51.432;-2.598;2022-10-31T09:06:00;11.68;;;3.33;;
56255;SDS011;57229;51.432;-2.598;2022-10-31T09:08:31;9.88;;;2.97;;
56255;SDS011;57229;51.432;-2.598;2022-10-31T09:10:58;9.10;;;2.95;;
56255;SDS011;57229;51.432;-2.598;2022-10-31T09:13:24;5.63;;;2.88;;
56255;SDS011;57229;51.432;-2.598;2022-10-31T09:15:50;9.93;;;3.05;;
56255;SDS011;57229;51.432;-2.598;2022-10-31T09:18:17;5.72;;;2.38;;
56255;SDS011;57229;51.432;-2.598;2022-10-31T09:20:45;11.27;;;2.80;;
56255;SDS011;57229;51.432;-2.598;2022-10-31T09:23:12;8.43;;;2.90;;
56255;SDS011;57229;51.432;-2.598;2022-10-31T09:25:40;9.80;;;2.97;;
56255;SDS011;57229;51.432;-2.598;2022-10-31T09:28:06;9.30;;;2.92;;
56255;SDS011;57229;51.432;-2.598;2022-10-31T09:30:35;7.88;;;3.30;;
56255;SDS011;57229;51.432;-2.598;2022-10-31T09:33:02;8.60;;;2.95;;
56255;SDS011;57229;51.432;-2.598;2022-10-31T09:35:30;6.57;;;2.65;;
56255;SDS011;57229;51.432;-2.598;2022-10-31T09:38:00;10.35;;;3.28;;
56255;SDS011;57229;51.432;-2.598;2022-10-31T09:40:50;11.98;;;3.30;;
56255;SDS011;57229;51.432;-2.598;2022-10-31T09:46:04;7.35;;;2.90;;
56255;SDS011;57229;51.432;-2.598;2022-10-31T09:48:58;7.63;;;3.22;;
56255;SDS011;57229;51.432;-2.598;2022-10-31T09:51:42;12.63;;;3.25;;
56255;SDS011;57229;51.432;-2.598;2022-10-31T09:54:12;7.85;;;2.92;;
56255;SDS011;57229;51.432;-2.598;2022-10-31T09:56:43;7.20;;;2.83;;
56255;SDS011;57229;51.432;-2.598;2022-10-31T09:59:31;9.32;;;2.95;;
56255;SDS011;57229;51.432;-2.598;2022-10-31T10:02:05;18.55;;;3.47;;
56255;SDS011;57229;51.432;-2.598;2022-10-31T10:04:39;20.27;;;3.88;;
56255;SDS011;57229;51.432;-2.598;2022-10-31T10:10:01;15.68;;;3.95;;
56255;SDS011;57229;51.432;-2.598;2022-10-31T10:21:05;19.58;;;3.65;;
56255;SDS011;57229;51.432;-2.598;2022-10-31T10:29:57;16.00;;;3.47;;
56255;SDS011;57229;51.432;-2.598;2022-10-31T10:32:43;12.18;;;3.00;;
56255;SDS011;57229;51.432;-2.598;2022-10-31T10:40:41;13.73;;;3.67;;
56255;SDS011;57229;51.432;-2.598;2022-10-31T10:54:59;15.40;;;3.40;;
56255;SDS011;57229;51.432;-2.598;2022-10-31T11:07:08;12.70;;;3.35;;
56255;SDS011;57229;51.432;-2.598;2022-10-31T11:09:35;8.60;;;3.10;;
56255;SDS011;57229;51.432;-2.598;2022-10-31T11:12:16;9.73;;;2.97;;
56255;SDS011;57229;51.432;-2.598;2022-10-31T11:14:52;9.23;;;3.00;;
56255;SDS011;57229;51.432;-2.598;2022-10-31T11:17:33;7.80;;;3.05;;
56255;SDS011;57229;51.432;-2.598;2022-10-31T11:29:36;12.90;;;2.92;;
56255;SDS011;57229;51.432;-2.598;2022-10-31T11:32:03;8.43;;;3.30;;
56255;SDS011;57229;51.432;-2.598;2022-10-31T11:34:30;6.20;;;3.22;;
56255;SDS011;57229;51.432;-2.598;2022-10-31T11:37:01;9.48;;;3.40;;
56255;SDS011;57229;51.432;-2.598;2022-10-31T11:39:34;6.25;;;2.90;;
56255;SDS011;57229;51.432;-2.598;2022-10-31T11:42:12;9.52;;;3.20;;
56255;SDS011;57229;51.432;-2.598;2022-10-31T11:44:41;6.15;;;3.00;;
56255;SDS011;57229;51.432;-2.598;2022-10-31T11:47:15;9.02;;;3.03;;
56255;SDS011;57229;51.432;-2.598;2022-10-31T11:49:43;6.82;;;2.95;;
56255;SDS011;57229;51.432;-2.598;2022-10-31T12:00:22;9.32;;;3.28;;
56255;SDS011;57229;51.432;-2.598;2022-10-31T12:03:03;6.80;;;3.00;;
56255;SDS011;57229;51.432;-2.598;2022-10-31T12:05:29;7.90;;;3.00;;
56255;SDS011;57229;51.432;-2.598;2022-10-31T12:07:58;8.20;;;3.20;;
56255;SDS011;57229;51.432;-2.598;2022-10-31T12:10:27;7.13;;;3.17;;
56255;SDS011;57229;51.432;-2.598;2022-10-31T12:13:14;10.98;;;3.10;;
56255;SDS011;57229;51.432;-2.598;2022-10-31T12:15:59;7.68;;;2.97;;
56255;SDS011;57229;51.432;-2.598;2022-10-31T12:27:13;6.53;;;3.17;;
56255;SDS011;57229;51.432;-2.598;2022-10-31T12:29:28;8.68;;;3.22;;
56255;SDS011;57229;51.432;-2.598;2022-10-31T12:48:10;5.43;;;2.92;;
56255;SDS011;57229;51.432;-2.598;2022-10-31T12:58:37;6.47;;;2.70;;
56255;SDS011;57229;51.432;-2.598;2022-10-31T13:06:24;5.82;;;2.67;;
56255;SDS011;57229;51.432;-2.598;2022-10-31T13:08:59;6.65;;;3.03;;
56255;SDS011;57229;51.432;-2.598;2022-10-31T13:11:29;7.22;;;2.70;;
56255;SDS011;57229;51.432;-2.598;2022-10-31T13:16:38;4.10;;;2.45;;
56255;SDS011;57229;51.432;-2.598;2022-10-31T13:19:10;5.88;;;2.78;;
56255;SDS011;57229;51.432;-2.598;2022-10-31T13:24:36;6.05;;;2.95;;
56255;SDS011;57229;51.432;-2.598;2022-10-31T13:27:13;5.97;;;2.50;;
56255;SDS011;57229;51.432;-2.598;2022-10-31T13:29:56;6.07;;;2.80;;
56255;SDS011;57229;51.432;-2.598;2022-10-31T13:32:36;6.13;;;2.50;;
56255;SDS011;57229;51.432;-2.598;2022-10-31T13:35:14;7.82;;;2.50;;
56255;SDS011;57229;51.432;-2.598;2022-10-31T13:38:23;6.07;;;2.65;;
56255;SDS011;57229;51.432;-2.598;2022-10-31T13:40:42;3.95;;;2.65;;
56255;SDS011;57229;51.432;-2.598;2022-10-31T13:45:53;4.15;;;2.55;;
56255;SDS011;57229;51.432;-2.598;2022-10-31T13:48:37;5.20;;;2.28;;
56255;SDS011;57229;51.432;-2.598;2022-10-31T13:51:09;10.65;;;2.80;;
56255;SDS011;57229;51.432;-2.598;2022-10-31T13:53:36;7.40;;;2.53;;
56255;SDS011;57229;51.432;-2.598;2022-10-31T13:56:20;6.70;;;2.60;;
56255;SDS011;57229;51.432;-2.598;2022-10-31T14:01:28;5.18;;;2.70;;
56255;SDS011;57229;51.432;-2.598;2022-10-31T14:06:40;4.95;;;2.60;;
56255;SDS011;57229;51.432;-2.598;2022-10-31T14:09:15;3.33;;;2.50;;
56255;SDS011;57229;51.432;-2.598;2022-10-31T14:12:10;3.50;;;2.90;;
56255;SDS011;57229;51.432;-2.598;2022-10-31T14:15:04;5.25;;;2.78;;
56255;SDS011;57229;51.432;-2.598;2022-10-31T14:22:44;6.00;;;2.60;;
56255;SDS011;57229;51.432;-2.598;2022-10-31T14:27:55;5.10;;;2.60;;
56255;SDS011;57229;51.432;-2.598;2022-10-31T14:30:22;3.25;;;2.50;;
56255;SDS011;57229;51.432;-2.598;2022-10-31T14:32:58;4.40;;;2.13;;
56255;SDS011;57229;51.432;-2.598;2022-10-31T14:35:36;4.85;;;2.38;;
56255;SDS011;57229;51.432;-2.598;2022-10-31T14:38:28;3.67;;;2.35;;
56255;SDS011;57229;51.432;-2.598;2022-10-31T14:41:33;5.10;;;2.50;;
56255;SDS011;57229;51.432;-2.598;2022-10-31T14:47:02;4.75;;;2.70;;
56255;SDS011;57229;51.432;-2.598;2022-10-31T14:52:36;4.22;;;2.40;;
56255;SDS011;57229;51.432;-2.598;2022-10-31T14:55:05;2.83;;;2.42;;
56255;SDS011;57229;51.432;-2.598;2022-10-31T14:57:36;4.57;;;2.40;;
56255;SDS011;57229;51.432;-2.598;2022-10-31T15:00:06;5.03;;;2.40;;
56255;SDS011;57229;51.432;-2.598;2022-10-31T15:02:50;4.93;;;2.65;;
56255;SDS011;57229;51.432;-2.598;2022-10-31T15:05:19;3.22;;;2.47;;
56255;SDS011;57229;51.432;-2.598;2022-10-31T15:08:04;2.88;;;2.30;;
56255;SDS011;57229;51.432;-2.598;2022-10-31T15:10:31;4.70;;;2.30;;
56255;SDS011;57229;51.432;-2.598;2022-10-31T15:13:10;2.47;;;2.22;;
56255;SDS011;57229;51.432;-2.598;2022-10-31T15:15:43;2.92;;;2.20;;
56255;SDS011;57229;51.432;-2.598;2022-10-31T15:18:17;3.25;;;2.13;;
56255;SDS011;57229;51.432;-2.598;2022-10-31T15:20:45;3.78;;;2.30;;
56255;SDS011;57229;51.432;-2.598;2022-10-31T15:23:14;3.85;;;2.47;;
56255;SDS011;57229;51.432;-2.598;2022-10-31T15:25:45;4.57;;;2.40;;
56255;SDS011;57229;51.432;-2.598;2022-10-31T15:28:15;2.55;;;2.30;;
56255;SDS011;57229;51.432;-2.598;2022-10-31T15:30:53;3.28;;;2.20;;
56255;SDS011;57229;51.432;-2.598;2022-10-31T15:33:31;2.88;;;2.60;;
56255;SDS011;57229;51.432;-2.598;2022-10-31T15:36:04;3.80;;;2.33;;
56255;SDS011;57229;51.432;-2.598;2022-10-31T15:38:30;3.53;;;2.40;;
56255;SDS011;57229;51.432;-2.598;2022-10-31T15:43:23;3.55;;;2.80;;
56255;SDS011;57229;51.432;-2.598;2022-10-31T15:45:50;2.70;;;2.50;;
56255;SDS011;57229;51.432;-2.598;2022-10-31T15:48:17;3.72;;;2.40;;
56255;SDS011;57229;51.432;-2.598;2022-10-31T15:53:24;2.50;;;2.30;;
56255;SDS011;57229;51.432;-2.598;2022-10-31T15:55:54;3.05;;;2.47;;
56255;SDS011;57229;51.432;-2.598;2022-10-31T15:58:22;3.28;;;2.70;;
56255;SDS011;57229;51.432;-2.598;2022-10-31T16:00:59;2.60;;;2.40;;
56255;SDS011;57229;51.432;-2.598;2022-10-31T16:03:27;2.67;;;2.47;;
56255;SDS011;57229;51.432;-2.598;2022-10-31T16:05:58;2.85;;;2.47;;
56255;SDS011;57229;51.432;-2.598;2022-10-31T16:10:54;2.70;;;2.50;;
56255;SDS011;57229;51.432;-2.598;2022-10-31T16:16:20;2.70;;;2.42;;
56255;SDS011;57229;51.432;-2.598;2022-10-31T16:18:47;2.42;;;2.22;;
56255;SDS011;57229;51.432;-2.598;2022-10-31T16:21:15;2.80;;;2.40;;
56255;SDS011;57229;51.432;-2.598;2022-10-31T16:23:50;3.22;;;2.10;;
56255;SDS011;57229;51.432;-2.598;2022-10-31T16:26:21;2.95;;;2.15;;
56255;SDS011;57229;51.432;-2.598;2022-10-31T16:28:53;2.60;;;2.40;;
56255;SDS011;57229;51.432;-2.598;2022-10-31T16:31:30;2.58;;;2.22;;
56255;SDS011;57229;51.432;-2.598;2022-10-31T16:34:14;3.83;;;2.72;;
56255;SDS011;57229;51.432;-2.598;2022-10-31T16:36:43;2.95;;;2.35;;
56255;SDS011;57229;51.432;-2.598;2022-10-31T16:39:09;3.15;;;2.20;;
56255;SDS011;57229;51.432;-2.598;2022-10-31T16:41:37;2.40;;;2.20;;
56255;SDS011;57229;51.432;-2.598;2022-10-31T16:44:04;2.50;;;2.10;;
56255;SDS011;57229;51.432;-2.598;2022-10-31T16:46:39;2.75;;;2.20;;
56255;SDS011;57229;51.432;-2.598;2022-10-31T16:49:04;2.40;;;2.20;;
56255;SDS011;57229;51.432;-2.598;2022-10-31T16:51:32;2.50;;;2.30;;
56255;SDS011;57229;51.432;-2.598;2022-10-31T16:53:58;12.02;;;2.35;;
56255;SDS011;57229;51.432;-2.598;2022-10-31T16:56:26;4.32;;;2.25;;
56255;SDS011;57229;51.432;-2.598;2022-10-31T16:58:54;5.88;;;2.45;;
56255;SDS011;57229;51.432;-2.598;2022-10-31T17:01:20;5.13;;;2.30;;
56255;SDS011;57229;51.432;-2.598;2022-10-31T17:03:46;3.22;;;2.03;;
56255;SDS011;57229;51.432;-2.598;2022-10-31T17:06:12;4.18;;;2.20;;
56255;SDS011;57229;51.432;-2.598;2022-10-31T17:08:38;2.42;;;2.15;;
56255;SDS011;57229;51.432;-2.598;2022-10-31T17:11:04;5.45;;;2.15;;
56255;SDS011;57229;51.432;-2.598;2022-10-31T17:13:31;2.45;;;2.10;;
56255;SDS011;57229;51.432;-2.598;2022-10-31T17:15:59;5.38;;;2.60;;
56255;SDS011;57229;51.432;-2.598;2022-10-31T17:18:26;5.75;;;2.63;;
56255;SDS011;57229;51.432;-2.598;2022-10-31T17:20:58;5.30;;;2.80;;
56255;SDS011;57229;51.432;-2.598;2022-10-31T17:23:26;6.60;;;3.30;;
56255;SDS011;57229;51.432;-2.598;2022-10-31T17:25:53;11.73;;;4.10;;
56255;SDS011;57229;51.432;-2.598;2022-10-31T17:28:19;11.02;;;5.03;;
56255;SDS011;57229;51.432;-2.598;2022-10-31T17:30:44;14.95;;;6.57;;
56255;SDS011;57229;51.432;-2.598;2022-10-31T17:33:12;21.92;;;7.53;;
56255;SDS011;57229;51.432;-2.598;2022-10-31T17:35:39;23.92;;;8.10;;
56255;SDS011;57229;51.432;-2.598;2022-10-31T17:38:08;33.88;;;10.70;;
56255;SDS011;57229;51.432;-2.598;2022-10-31T17:40:36;31.70;;;9.93;;
56255;SDS011;57229;51.432;-2.598;2022-10-31T17:43:03;29.98;;;9.75;;
56255;SDS011;57229;51.432;-2.598;2022-10-31T17:45:30;19.88;;;9.45;;
56255;SDS011;57229;51.432;-2.598;2022-10-31T17:48:20;25.02;;;9.98;;
56255;SDS011;57229;51.432;-2.598;2022-10-31T17:50:46;27.15;;;10.32;;
56255;SDS011;57229;51.432;-2.598;2022-10-31T17:53:13;27.40;;;10.27;;
56255;SDS011;57229;51.432;-2.598;2022-10-31T17:55:38;26.10;;;10.25;;
56255;SDS011;57229;51.432;-2.598;2022-10-31T17:58:05;29.67;;;9.90;;
56255;SDS011;57229;51.432;-2.598;2022-10-31T18:01:24;26.17;;;10.32;;
56255;SDS011;57229;51.432;-2.598;2022-10-31T18:03:50;24.30;;;9.15;;
56255;SDS011;57229;51.432;-2.598;2022-10-31T18:06:16;24.17;;;9.38;;
56255;SDS011;57229;51.432;-2.598;2022-10-31T18:08:43;22.77;;;8.45;;
56255;SDS011;57229;51.432;-2.598;2022-10-31T18:11:11;25.40;;;9.50;;
56255;SDS011;57229;51.432;-2.598;2022-10-31T18:13:46;23.33;;;9.63;;
56255;SDS011;57229;51.432;-2.598;2022-10-31T18:16:16;24.80;;;9.60;;
56255;SDS011;57229;51.432;-2.598;2022-10-31T18:18:54;29.55;;;8.90;;
56255;SDS011;57229;51.432;-2.598;2022-10-31T18:21:36;22.35;;;8.77;;